首页
METAR-TAF:

METAR-TAF

机场 :

华盛顿杜勒斯国际机场

华盛顿, 弗吉尼亚州, 美国

纬度: 38-56-05N, 经度: 077-26-51W, 海拔: 95米

当前天气观测

该预报发布于36分钟前的19:52 UTC
风速8节,风向,有时为16节阵风
温度 31°C
湿度 63%
气压 1015 hPa
能見度: 16.1公里
少量云层高于5000英尺
多云层高于10000英尺
多云层高于20000英尺

METAR: KIAD 171952Z 19008G16KT 10SM FEW050 BKN100 BKN200 31/23 A2997 RMK AO2 SLP146 T03110228

时间: 16:28 (20:28 UTC)

预报

该预报发布于2小时和49分钟前的17:39 UTC
预报有效从17日的 18点(UTC)到 18日的 24点(UTC)
风速9节,风向南转西南
能見度: 10公里
散云层高于10000英尺
多云层高于25000英尺
从 17日的 2100点(UTC)
风速9节,风向南转西南
能見度: 10公里
散云层高于6000英尺, 积雨云.
多云层高于25000英尺
附近有雷暴
从 18日的 0300点(UTC)
风速4节,风向西南
能見度: 10公里
散云层高于2500英尺
多云层高于8000英尺
从 18日的 1800点(UTC)
风速6节,风向西
能見度: 10公里
散云层高于4500英尺
阴天层高于20000英尺
小阵雨

TAF: KIAD 171739Z 1718/1824 20009KT P6SM SCT100 BKN250 FM172100 20009KT P6SM VCTS SCT060CB BKN250 FM180300 22004KT P6SM SCT025 BKN080 FM181800 26006KT P6SM -SHRA SCT045 OVC200

超过4000个机场的气象观测和天气预报(METAR&TAF报告)。

可查询的气象台以黄色和红色小点在地图上表示。

将鼠标移到小点上方,可查看气象台名称。

然后点击查看天气观测和预报。

如需切换地图:点击带黑十字的绿色按钮放大地图;点击带横线的绿色按钮缩小地图;或者点击绿色箭头查看邻近地区的地图。


METAR-TAF: